TimeCDT,TemperatureF,Dew PointF,Humidity,Sea Level PressureIn,VisibilityMPH,Wind Direction,Wind SpeedMPH,Gust SpeedMPH,PrecipitationIn,Events,Conditions,WindDirDegrees,DateUTC
12:08 AM,55.9,47.1,72,-9999,-9999.0,South,9.2,-,N/A,,Unknown,170,2013-10-01 05:08:00
12:28 AM,57.0,47.1,69,-9999,-9999.0,South,9.2,-,N/A,,Unknown,180,2013-10-01 05:28:00
12:48 AM,57.9,45.1,62,-9999,-9999.0,South,9.2,-,N/A,,Unknown,190,2013-10-01 05:48:00
1:08 AM,59.0,44.1,58,-9999,-9999.0,South,9.2,-,N/A,,Unknown,190,2013-10-01 06:08:00
1:28 AM,59.0,43.2,56,-9999,-9999.0,SSW,10.4,-,N/A,,Unknown,200,2013-10-01 06:28:00
1:48 AM,59.0,43.2,56,-9999,-9999.0,SSW,10.4,-,N/A,,Unknown,200,2013-10-01 06:48:00
2:08 AM,59.0,42.1,53,-9999,-9999.0,SSW,9.2,-,N/A,,Unknown,200,2013-10-01 07:08:00
2:28 AM,60.1,42.1,51,-9999,-9999.0,SSW,8.1,-,N/A,,Unknown,200,2013-10-01 07:28:00
2:48 AM,-9999,-9999,N/A,-9999,-9999.0,North,-9999.0,-,N/A,,Unknown,0,2013-10-01 07:48:00
3:08 AM,55.9,42.1,60,-9999,-9999.0,WSW,6.9,-,N/A,,Unknown,240,2013-10-01 08:08:00
3:28 AM,55.9,42.1,60,-9999,-9999.0,WSW,8.1,-,N/A,,Unknown,250,2013-10-01 08:28:00
3:48 AM,55.9,41.2,58,-9999,-9999.0,SW,8.1,-,N/A,,Unknown,220,2013-10-01 08:48:00
4:08 AM,57.9,41.2,54,-9999,-9999.0,SW,9.2,-,N/A,,Unknown,220,2013-10-01 09:08:00
4:28 AM,60.1,41.2,50,-9999,-9999.0,SSW,9.2,-,N/A,,Unknown,210,2013-10-01 09:28:00
4:48 AM,61.0,43.2,52,-9999,-9999.0,SW,8.1,-,N/A,,Unknown,230,2013-10-01 09:48:00
5:08 AM,59.0,41.2,52,-9999,-9999.0,SW,9.2,-,N/A,,Unknown,230,2013-10-01 10:08:00
5:28 AM,60.1,40.1,48,-9999,-9999.0,SW,11.5,-,N/A,,Unknown,230,2013-10-01 10:28:00
5:48 AM,59.0,40.1,50,-9999,-9999.0,WSW,9.2,-,N/A,,Unknown,240,2013-10-01 10:48:00
6:08 AM,59.0,39.0,48,-9999,-9999.0,WSW,9.2,-,N/A,,Unknown,240,2013-10-01 11:08:00
6:28 AM,59.0,39.0,48,-9999,-9999.0,WSW,5.8,-,N/A,,Unknown,250,2013-10-01 11:28:00
6:48 AM,62.1,38.1,41,-9999,-9999.0,WSW,8.1,-,N/A,,Unknown,240,2013-10-01 11:48:00
7:08 AM,57.9,38.1,48,-9999,-9999.0,West,6.9,-,N/A,,Unknown,270,2013-10-01 12:08:00
7:28 AM,57.0,37.0,47,-9999,-9999.0,West,9.2,-,N/A,,Unknown,270,2013-10-01 12:28:00
7:48 AM,55.9,37.0,49,-9999,-9999.0,West,8.1,-,N/A,,Unknown,270,2013-10-01 12:48:00
8:08 AM,-9999,-9999,N/A,-9999,-9999.0,North,-9999.0,-,N/A,,Unknown,0,2013-10-01 13:08:00
8:28 AM,59.0,37.0,44,-9999,-9999.0,WNW,9.2,-,N/A,,Unknown,300,2013-10-01 13:28:00
8:48 AM,60.1,39.0,46,-9999,-9999.0,WNW,9.2,-,N/A,,Unknown,300,2013-10-01 13:48:00
9:08 AM,61.0,37.0,41,-9999,-9999.0,NW,9.2,-,N/A,,Unknown,310,2013-10-01 14:08:00
9:28 AM,62.1,39.0,43,-9999,-9999.0,NNW,9.2,-,N/A,,Unknown,330,2013-10-01 14:28:00
9:48 AM,63.0,37.0,38,-9999,-9999.0,NNW,11.5,-,N/A,,Unknown,330,2013-10-01 14:48:00
10:08 AM,64.0,38.1,38,-9999,-9999.0,NNW,10.4,-,N/A,,Unknown,340,2013-10-01 15:08:00
10:28 AM,64.9,41.2,42,-9999,-9999.0,North,9.2,-,N/A,,Unknown,350,2013-10-01 15:28:00
10:48 AM,66.0,41.2,40,-9999,-9999.0,NNW,6.9,-,N/A,,Unknown,330,2013-10-01 15:48:00
11:08 AM,66.9,45.1,45,-9999,-9999.0,North,8.1,-,N/A,,Unknown,360,2013-10-01 16:08:00
11:28 AM,68.0,43.2,41,-9999,-9999.0,NNW,12.7,-,N/A,,Unknown,340,2013-10-01 16:28:00
11:48 AM,70.0,47.1,44,-9999,-9999.0,North,8.1,-,N/A,,Unknown,350,2013-10-01 16:48:00
12:08 PM,71.1,46.0,41,-9999,-9999.0,North,11.5,-,N/A,,Unknown,10,2013-10-01 17:08:00
12:28 PM,72.0,48.0,43,-9999,-9999.0,North,8.1,-,N/A,,Unknown,360,2013-10-01 17:28:00
12:48 PM,73.0,48.0,41,-9999,-9999.0,North,10.4,-,N/A,,Unknown,10,2013-10-01 17:48:00
1:08 PM,73.9,48.0,40,-9999,-9999.0,NNE,12.7,-,N/A,,Unknown,30,2013-10-01 18:08:00
1:28 PM,75.9,49.1,39,-9999,-9999.0,NNE,6.9,-,N/A,,Unknown,20,2013-10-01 18:28:00
1:48 PM,77.0,50.2,39,-9999,-9999.0,NE,11.5,-,N/A,,Unknown,40,2013-10-01 18:48:00
2:08 PM,78.1,50.2,38,-9999,-9999.0,NNE,9.2,-,N/A,,Unknown,30,2013-10-01 19:08:00
2:28 PM,78.1,49.1,36,-9999,-9999.0,East,11.5,-,N/A,,Unknown,80,2013-10-01 19:28:00
2:48 PM,79.0,51.1,38,-9999,-9999.0,NE,10.4,-,N/A,,Unknown,50,2013-10-01 19:48:00
3:08 PM,79.0,51.1,38,-9999,-9999.0,ENE,8.1,-,N/A,,Unknown,70,2013-10-01 20:08:00
3:28 PM,80.1,48.0,32,-9999,-9999.0,East,12.7,-,N/A,,Unknown,80,2013-10-01 20:28:00
3:48 PM,80.1,50.2,35,-9999,-9999.0,ENE,9.2,-,N/A,,Unknown,60,2013-10-01 20:48:00
4:08 PM,81.0,51.1,35,-9999,-9999.0,ENE,9.2,-,N/A,,Unknown,60,2013-10-01 21:08:00
4:28 PM,80.1,50.2,35,-9999,-9999.0,East,11.5,-,N/A,,Unknown,90,2013-10-01 21:28:00
4:48 PM,81.0,49.1,33,-9999,-9999.0,East,9.2,-,N/A,,Unknown,90,2013-10-01 21:48:00
5:08 PM,80.1,49.1,34,-9999,-9999.0,East,6.9,-,N/A,,Unknown,80,2013-10-01 22:08:00
5:28 PM,80.1,49.1,34,-9999,-9999.0,East,8.1,-,N/A,,Unknown,80,2013-10-01 22:28:00
5:48 PM,80.1,48.0,32,-9999,-9999.0,ESE,9.2,-,N/A,,Unknown,110,2013-10-01 22:48:00
6:08 PM,79.0,48.0,34,-9999,-9999.0,East,8.1,-,N/A,,Unknown,100,2013-10-01 23:08:00
6:28 PM,78.1,49.1,36,-9999,-9999.0,East,10.4,-,N/A,,Unknown,90,2013-10-01 23:28:00
6:48 PM,75.9,50.2,40,-9999,-9999.0,East,9.2,-,N/A,,Unknown,100,2013-10-01 23:48:00
7:08 PM,72.0,50.2,46,-9999,-9999.0,ESE,6.9,-,N/A,,Unknown,120,2013-10-02 00:08:00
7:28 PM,66.9,50.2,55,-9999,-9999.0,ESE,6.9,-,N/A,,Unknown,120,2013-10-02 00:28:00
7:48 PM,-9999,-9999,N/A,31.20,-9999.0,North,-9999.0,-,N/A,,Unknown,0,2013-10-02 00:48:00
8:08 PM,66.0,49.1,54,-9999,-9999.0,ESE,5.8,-,N/A,,Unknown,120,2013-10-02 01:08:00
8:28 PM,64.9,49.1,56,-9999,-9999.0,ESE,4.6,-,N/A,,Unknown,120,2013-10-02 01:28:00
8:48 PM,64.0,49.1,58,-9999,-9999.0,ESE,4.6,-,N/A,,Unknown,120,2013-10-02 01:48:00
9:08 PM,64.9,49.1,56,-9999,-9999.0,ESE,4.6,-,N/A,,Unknown,120,2013-10-02 02:08:00
9:28 PM,64.9,50.2,59,-9999,-9999.0,SE,4.6,-,N/A,,Unknown,130,2013-10-02 02:28:00
9:48 PM,64.9,50.2,59,-9999,-9999.0,SE,4.6,-,N/A,,Unknown,140,2013-10-02 02:48:00
10:08 PM,64.9,51.1,61,-9999,-9999.0,SE,4.6,-,N/A,,Unknown,140,2013-10-02 03:08:00
10:28 PM,64.0,51.1,63,-9999,-9999.0,SE,5.8,-,N/A,,Unknown,140,2013-10-02 03:28:00
10:48 PM,63.0,50.2,63,-9999,-9999.0,SE,8.1,-,N/A,,Unknown,140,2013-10-02 03:48:00
11:08 PM,60.1,50.2,70,-9999,-9999.0,SE,6.9,-,N/A,,Unknown,140,2013-10-02 04:08:00
11:28 PM,61.0,50.2,68,-9999,-9999.0,SE,6.9,-,N/A,,Unknown,140,2013-10-02 04:28:00
11:48 PM,61.0,50.2,68,-9999,-9999.0,SE,5.8,-,N/A,,Unknown,130,2013-10-02 04:48:00